Time;durP1;ratioP1;P1;durP2;ratioP2;P2;SDS_P1;SDS_P2;PMS_P1;PMS_P2;Temp;Humidity;BMP_temperature;BMP_pressure;BME280_temperature;BME280_humidity;BME280_pressure;Samples;Min_cycle;Max_cycle;Signal;HPM_P1;HPM_P2
2024/01/30 00:02:19;;;;;;;9.60;3.80;;;;;;;0.12;72.89;101056.77;105862;1253;96606;-81
2024/01/30 00:04:47;;;;;;;7.10;3.80;;;;;;;0.13;72.63;101056.77;105649;1256;107702;-82
2024/01/30 00:07:15;;;;;;;11.20;4.20;;;;;;;0.14;72.54;101053.28;105876;1250;96608;-81
2024/01/30 00:09:47;;;;;;;7.10;3.60;;;;;;;0.15;72.60;101051.71;105606;1250;96598;-77
2024/01/30 00:12:14;;;;;;;8.50;3.70;;;;;;;0.18;72.87;101042.48;106266;1251;109952;-81
2024/01/30 00:14:45;;;;;;;7.90;3.60;;;;;;;0.19;72.67;101045.79;105432;1256;97502;-82
2024/01/30 00:17:13;;;;;;;8.00;4.00;;;;;;;0.20;72.62;101046.31;105301;1266;108279;-76
2024/01/30 00:19:41;;;;;;;7.30;3.40;;;;;;;0.22;72.69;101048.41;105450;1251;96767;-80
2024/01/30 00:22:09;;;;;;;8.80;3.60;;;;;;;0.24;72.71;101043.86;105807;1250;96590;-80
2024/01/30 00:24:37;;;;;;;6.10;3.70;;;;;;;0.25;72.64;101043.52;105291;1251;109634;-81
2024/01/30 00:27:05;;;;;;;6.30;3.40;;;;;;;0.26;72.65;101041.77;106272;1252;96587;-81
2024/01/30 00:29:33;;;;;;;9.70;3.90;;;;;;;0.25;72.68;101044.05;107913;1254;106808;-81
2024/01/30 00:32:02;;;;;;;6.80;3.00;;;;;;;0.24;72.52;101038.80;106636;1253;96632;-83
2024/01/30 00:34:29;;;;;;;7.90;3.00;;;;;;;0.25;72.62;101040.20;105371;1255;96520;-80
2024/01/30 00:36:57;;;;;;;6.80;3.40;;;;;;;0.26;72.37;101038.99;105569;1251;109460;-82
2024/01/30 00:39:25;;;;;;;7.40;3.30;;;;;;;0.27;72.59;101035.67;106007;1251;96564;-82
2024/01/30 00:41:53;;;;;;;4.80;3.10;;;;;;;0.27;72.78;101029.21;105565;1256;107100;-82
2024/01/30 00:44:21;;;;;;;6.70;3.20;;;;;;;0.28;72.58;101030.96;105847;1254;96586;-78
2024/01/30 00:46:49;;;;;;;6.80;3.50;;;;;;;0.29;72.63;101029.23;105421;1267;97520;-82
2024/01/30 00:49:17;;;;;;;6.50;3.30;;;;;;;0.30;72.40;101026.60;105633;1253;109612;-82
2024/01/30 00:51:46;;;;;;;6.60;3.30;;;;;;;0.32;72.47;101029.05;107821;1252;96581;-81
2024/01/30 00:54:14;;;;;;;4.70;2.80;;;;;;;0.31;72.48;101023.11;106249;1251;107741;-79
2024/01/30 00:56:42;;;;;;;5.90;3.00;;;;;;;0.31;72.32;101023.45;105487;1253;96581;-82
2024/01/30 00:59:11;;;;;;;5.20;3.20;;;;;;;0.33;72.66;101018.41;105692;1255;96584;-82
2024/01/30 01:01:39;;;;;;;6.00;2.80;;;;;;;0.34;72.42;101021.89;105987;1252;109459;-81
2024/01/30 01:04:07;;;;;;;5.40;3.00;;;;;;;0.34;72.27;101019.46;105724;1264;96804;-82
2024/01/30 01:06:35;;;;;;;5.40;3.00;;;;;;;0.33;72.56;101017.88;108303;1250;106232;-82
2024/01/30 01:09:03;;;;;;;5.50;3.00;;;;;;;0.33;72.30;101015.09;105797;1252;96577;-82
2024/01/30 01:11:32;;;;;;;6.00;3.30;;;;;;;0.31;72.18;101019.29;105943;1253;96687;-82
2024/01/30 01:14:00;;;;;;;7.10;3.30;;;;;;;0.29;72.44;101015.61;105595;1251;108640;-81
2024/01/30 01:16:28;;;;;;;6.20;3.10;;;;;;;0.31;72.45;101012.30;105505;1256;96721;-84
2024/01/30 01:18:56;;;;;;;5.30;3.10;;;;;;;0.32;72.32;101011.08;106304;1253;107484;-82
2024/01/30 01:21:24;;;;;;;5.10;3.30;;;;;;;0.32;72.31;101006.54;106250;1255;97094;-80
2024/01/30 01:23:52;;;;;;;7.20;3.80;;;;;;;0.33;72.26;101006.19;106516;1254;97531;-82
2024/01/30 01:26:20;;;;;;;6.40;3.70;;;;;;;0.33;72.31;101006.72;106123;1250;108705;-81
2024/01/30 01:28:48;;;;;;;6.30;2.80;;;;;;;0.34;72.24;101007.41;107811;1251;96549;-82
2024/01/30 01:31:17;;;;;;;5.80;3.00;;;;;;;0.36;72.24;101005.14;106248;1252;107212;-79
2024/01/30 01:33:46;;;;;;;6.70;3.00;;;;;;;0.38;72.38;101000.96;105895;1256;97158;-81
2024/01/30 01:36:14;;;;;;;6.80;3.40;;;;;;;0.38;72.28;101001.48;106053;1251;96667;-80
2024/01/30 01:38:42;;;;;;;5.80;3.10;;;;;;;0.39;72.30;101007.42;105423;1256;109976;-82
2024/01/30 01:41:10;;;;;;;5.80;3.10;;;;;;;0.38;72.20;101001.14;105842;1251;96591;-81
2024/01/30 01:43:39;;;;;;;5.20;3.40;;;;;;;0.36;72.21;101001.83;105298;1251;106827;-81
2024/01/30 01:46:09;;;;;;;7.60;3.30;;;;;;;0.34;72.28;101003.57;106545;1253;96582;-82
2024/01/30 01:48:39;;;;;;;5.30;3.10;;;;;;;0.33;72.20;101003.40;106013;1256;96619;-83
2024/01/30 01:51:08;;;;;;;6.40;3.40;;;;;;;0.34;72.12;101003.05;106437;1252;109940;-82
2024/01/30 01:53:36;;;;;;;6.70;3.30;;;;;;;0.34;72.25;100998.69;105790;1255;96511;-81
2024/01/30 01:56:05;;;;;;;6.00;3.60;;;;;;;0.35;72.47;100993.80;105681;1256;107112;-81
2024/01/30 01:58:33;;;;;;;6.20;3.70;;;;;;;0.34;72.36;100992.41;105904;1254;96698;-79
2024/01/30 02:01:02;;;;;;;6.10;3.00;;;;;;;0.37;72.33;100999.73;107156;1251;96582;-76
2024/01/30 02:03:30;;;;;;;6.90;3.90;;;;;;;0.39;72.30;100996.60;107904;1250;109860;-82
2024/01/30 02:05:58;;;;;;;5.70;3.30;;;;;;;0.41;72.35;100997.81;106996;1253;96851;-79
2024/01/30 02:08:27;;;;;;;5.90;3.00;;;;;;;0.42;72.33;100996.05;108086;1250;107589;-83
2024/01/30 02:10:55;;;;;;;8.00;3.30;;;;;;;0.41;72.38;100996.42;108461;1251;94541;-79
2024/01/30 02:13:23;;;;;;;6.40;3.40;;;;;;;0.41;72.22;100992.04;106697;1250;96556;-80
2024/01/30 02:15:51;;;;;;;6.20;3.50;;;;;;;0.43;72.22;100992.05;105753;1251;109455;-82
2024/01/30 02:18:23;;;;;;;8.20;3.40;;;;;;;0.43;72.09;100988.90;107354;1252;96607;-82
2024/01/30 02:20:54;;;;;;;5.80;3.10;;;;;;;0.41;72.16;100990.83;105555;1251;107399;-82
2024/01/30 02:23:25;;;;;;;5.90;3.30;;;;;;;0.43;72.16;100988.91;106562;1252;96596;-78
2024/01/30 02:25:53;;;;;;;4.60;2.90;;;;;;;0.45;72.16;100991.17;106333;1251;96698;-81
2024/01/30 02:28:21;;;;;;;6.50;3.30;;;;;;;0.46;72.21;100993.63;107579;1250;109397;-78
2024/01/30 02:30:49;;;;;;;6.60;3.40;;;;;;;0.46;72.26;100990.14;106256;1251;96516;-81
2024/01/30 02:33:17;;;;;;;5.80;3.40;;;;;;;0.47;72.23;100991.52;106559;1251;106226;-81
2024/01/30 02:35:45;;;;;;;6.60;3.50;;;;;;;0.47;72.18;100992.06;105387;1257;96745;-80
2024/01/30 02:38:13;;;;;;;6.00;3.10;;;;;;;0.46;72.04;100990.65;106515;1251;96588;-81
2024/01/30 02:40:40;;;;;;;7.60;4.00;;;;;;;0.47;72.27;100987.69;105777;1254;111322;-82
2024/01/30 02:43:08;;;;;;;6.80;3.40;;;;;;;0.48;72.22;100986.98;105735;1254;96658;-83
2024/01/30 02:45:36;;;;;;;9.20;3.90;;;;;;;0.50;72.08;100987.52;108506;1251;107422;-78
2024/01/30 02:48:04;;;;;;;6.40;3.00;;;;;;;0.51;72.18;100991.19;106399;1254;96582;-83
2024/01/30 02:50:32;;;;;;;6.10;3.40;;;;;;;0.52;72.23;100994.49;106126;1254;96555;-82
2024/01/30 02:53:00;;;;;;;5.20;3.30;;;;;;;0.51;72.06;101004.98;105928;1251;109866;-80
2024/01/30 02:55:28;;;;;;;7.10;4.30;;;;;;;0.51;71.97;101007.59;105637;1254;96596;-82
2024/01/30 02:57:56;;;;;;;5.90;3.20;;;;;;;0.51;72.01;101007.24;105847;1253;107594;-80
2024/01/30 03:00:24;;;;;;;5.40;3.00;;;;;;;0.50;72.04;101006.02;106158;1251;96533;-82
2024/01/30 03:02:52;;;;;;;6.00;3.30;;;;;;;0.46;71.95;101007.42;106890;1253;96566;-82
2024/01/30 03:05:20;;;;;;;5.30;3.40;;;;;;;0.43;71.82;101005.66;108527;1250;109620;-80
2024/01/30 03:07:48;;;;;;;6.90;3.10;;;;;;;0.42;71.87;101002.70;105700;1253;96768;-83
2024/01/30 03:10:16;;;;;;;5.50;3.20;;;;;;;0.41;71.76;100999.39;105828;1251;106939;-82
2024/01/30 03:12:44;;;;;;;7.80;3.30;;;;;;;0.39;71.88;101005.67;107036;1250;97594;-79
2024/01/30 03:15:12;;;;;;;5.70;3.20;;;;;;;0.36;71.93;101007.59;105678;1254;96987;-80
2024/01/30 03:17:40;;;;;;;7.10;3.50;;;;;;;0.34;71.75;101005.67;105715;1251;108943;-83
2024/01/30 03:20:09;;;;;;;4.90;3.10;;;;;;;0.32;71.89;101002.52;107439;1251;96502;-80
2024/01/30 03:22:37;;;;;;;6.10;3.50;;;;;;;0.28;71.80;101006.88;105895;1260;107177;-82
2024/01/30 03:25:06;;;;;;;6.20;3.30;;;;;;;0.22;71.85;101006.17;105620;1254;97870;-82
2024/01/30 03:27:34;;;;;;;5.80;3.40;;;;;;;0.17;71.82;101009.49;105857;1256;98582;-82
2024/01/30 03:30:02;;;;;;;6.70;3.80;;;;;;;0.10;71.86;101006.86;105434;1251;108872;-82
2024/01/30 03:32:30;;;;;;;6.90;3.10;;;;;;;0.06;71.69;101001.27;105727;1254;97514;-81
2024/01/30 03:34:58;;;;;;;7.40;3.80;;;;;;;0.05;71.82;100996.73;105200;1251;109010;-84
2024/01/30 03:37:26;;;;;;;6.20;3.60;;;;;;;0.05;71.86;100993.06;105460;1270;97928;-82
2024/01/30 03:39:54;;;;;;;6.90;3.90;;;;;;;0.10;72.04;100993.77;105669;1256;96690;-82
2024/01/30 03:42:22;;;;;;;7.20;3.50;;;;;;;0.13;71.92;100991.17;105453;1256;110045;-82
2024/01/30 03:44:53;;;;;;;5.20;2.80;;;;;;;0.16;71.94;100990.48;106257;1250;97191;-82
2024/01/30 03:47:21;;;;;;;8.50;3.60;;;;;;;0.20;71.95;100991.17;105810;1256;109394;-77
2024/01/30 03:49:49;;;;;;;5.90;3.50;;;;;;;0.23;72.13;100988.03;106207;1254;96563;-82
2024/01/30 03:52:17;;;;;;;7.40;3.50;;;;;;;0.28;72.17;100988.55;105608;1257;96597;-82
2024/01/30 03:54:45;;;;;;;9.80;3.80;;;;;;;0.30;72.02;100992.40;106700;1253;109945;-82
2024/01/30 03:57:13;;;;;;;7.40;3.80;;;;;;;0.33;72.14;100991.18;107942;1250;96514;-83
2024/01/30 03:59:43;;;;;;;5.30;3.30;;;;;;;0.36;72.13;100992.77;106094;1253;107241;-82
2024/01/30 04:02:11;;;;;;;5.30;3.10;;;;;;;0.40;72.00;100987.86;107045;1251;96604;-82
2024/01/30 04:04:40;;;;;;;7.70;3.80;;;;;;;0.42;72.03;100978.42;106838;1250;96539;-84
2024/01/30 04:07:08;;;;;;;6.10;2.90;;;;;;;0.43;71.71;100970.92;105762;1254;109793;-75
2024/01/30 04:09:38;;;;;;;6.40;3.10;;;;;;;0.42;71.87;100964.99;105817;1254;96606;-81
2024/01/30 04:12:06;;;;;;;6.60;3.90;;;;;;;0.43;71.83;100965.34;105728;1255;108308;-82
2024/01/30 04:14:35;;;;;;;8.40;4.90;;;;;;;0.46;71.92;100962.89;105578;1257;96714;-82
2024/01/30 04:17:03;;;;;;;7.20;4.50;;;;;;;0.48;71.78;100966.73;106540;1253;97621;-82
2024/01/30 04:19:31;;;;;;;9.10;4.40;;;;;;;0.48;71.98;100967.95;105811;1256;108570;-82
2024/01/30 04:21:59;;;;;;;8.20;4.30;;;;;;;0.48;71.90;100972.51;106057;1253;97520;-83
2024/01/30 04:24:26;;;;;;;10.10;4.10;;;;;;;0.49;71.89;100980.70;106086;1255;108097;-83
2024/01/30 04:26:57;;;;;;;9.20;4.20;;;;;;;0.52;72.03;100982.27;105535;1255;97523;-77
2024/01/30 04:29:25;;;;;;;7.90;4.60;;;;;;;0.52;71.66;100988.73;105994;1250;97439;-80
2024/01/30 04:31:53;;;;;;;8.90;4.70;;;;;;;0.51;71.83;100985.95;105310;1251;110021;-81
2024/01/30 04:34:21;;;;;;;6.40;3.90;;;;;;;0.52;71.98;100983.85;105926;1251;96571;-76
2024/01/30 04:36:49;;;;;;;8.70;4.80;;;;;;;0.53;71.71;100981.58;105548;1251;107330;-82
2024/01/30 04:39:17;;;;;;;8.60;5.20;;;;;;;0.55;72.04;100977.39;107431;1253;96574;-79
2024/01/30 04:41:45;;;;;;;12.70;5.30;;;;;;;0.60;72.12;100973.56;107588;1254;95009;-83
2024/01/30 04:44:13;;;;;;;8.60;5.40;;;;;;;0.62;71.72;100971.61;106053;1254;110742;-82
2024/01/30 04:46:40;;;;;;;8.80;4.40;;;;;;;0.66;71.85;100970.38;107509;1253;96594;-79
2024/01/30 04:49:08;;;;;;;9.20;4.20;;;;;;;0.68;71.95;100965.33;105573;1252;107297;-80
2024/01/30 04:51:36;;;;;;;6.60;3.90;;;;;;;0.70;71.90;100967.60;105858;1251;96645;-81
2024/01/30 04:54:04;;;;;;;10.90;4.80;;;;;;;0.73;71.96;100969.16;106684;1251;96494;-81
2024/01/30 04:56:32;;;;;;;8.50;4.70;;;;;;;0.73;71.88;100968.30;105505;1255;109790;-81
2024/01/30 04:59:00;;;;;;;8.00;4.50;;;;;;;0.74;71.66;100966.54;106241;1254;97317;-82
2024/01/30 05:01:28;;;;;;;9.90;5.10;;;;;;;0.76;71.84;100967.41;107969;1253;107686;-79
2024/01/30 05:03:56;;;;;;;8.20;4.00;;;;;;;0.76;71.76;100963.73;106761;1253;97540;-82
2024/01/30 05:06:27;;;;;;;7.90;5.20;;;;;;;0.77;71.85;100963.58;108563;1251;94522;-73
2024/01/30 05:08:55;;;;;;;6.60;4.00;;;;;;;0.78;71.79;100967.41;107389;1253;110460;-73
2024/01/30 05:11:23;;;;;;;9.00;5.30;;;;;;;0.78;71.66;100966.71;106086;1254;96612;-74
2024/01/30 05:13:51;;;;;;;10.80;5.30;;;;;;;0.79;71.72;100971.95;105362;1269;107140;-72
2024/01/30 05:16:19;;;;;;;8.80;4.80;;;;;;;0.80;71.58;100970.38;107279;1254;96600;-71
2024/01/30 05:18:47;;;;;;;6.60;3.60;;;;;;;0.79;71.65;100968.63;105501;1253;96549;-74
2024/01/30 05:21:15;;;;;;;6.20;3.70;;;;;;;0.81;71.59;100972.47;105926;1256;109687;-73
2024/01/30 05:23:43;;;;;;;7.30;3.30;;;;;;;0.85;71.50;100972.10;105511;1256;96616;-74
2024/01/30 05:26:11;;;;;;;9.20;3.80;;;;;;;0.87;71.71;100981.18;105511;1256;107227;-74
2024/01/30 05:28:38;;;;;;;7.80;4.30;;;;;;;0.85;71.53;100982.77;105525;1255;96600;-81
2024/01/30 05:31:06;;;;;;;9.30;4.70;;;;;;;0.84;71.28;100987.30;105913;1251;96555;-81
2024/01/30 05:33:34;;;;;;;7.90;4.90;;;;;;;0.82;71.35;100990.27;105974;1253;109853;-81
2024/01/30 05:36:03;;;;;;;8.10;3.60;;;;;;;0.82;71.52;100987.30;106557;1254;96702;-82
2024/01/30 05:38:31;;;;;;;6.60;3.60;;;;;;;0.82;71.40;100985.20;105717;1254;107669;-80
2024/01/30 05:40:59;;;;;;;9.00;4.70;;;;;;;0.82;71.52;100985.55;106308;1254;96713;-80
2024/01/30 05:43:27;;;;;;;10.20;4.40;;;;;;;0.81;71.45;100986.27;107319;1255;96620;-81
2024/01/30 05:45:55;;;;;;;9.50;4.80;;;;;;;0.81;71.40;100984.52;106009;1253;109991;-82
2024/01/30 05:48:23;;;;;;;7.60;3.90;;;;;;;0.83;71.37;100985.57;106879;1251;96616;-80
2024/01/30 05:50:51;;;;;;;9.20;4.50;;;;;;;0.84;71.19;100984.34;105441;1257;107422;-81
2024/01/30 05:53:19;;;;;;;7.40;3.70;;;;;;;0.84;71.45;100980.84;106401;1254;96597;-82
2024/01/30 05:55:47;;;;;;;8.60;3.90;;;;;;;0.85;71.29;100987.30;105305;1256;96599;-83
2024/01/30 05:58:15;;;;;;;7.30;4.10;;;;;;;0.87;71.47;100987.98;105915;1251;109900;-81
2024/01/30 06:00:43;;;;;;;8.20;4.00;;;;;;;0.86;71.38;100985.37;105587;1254;96532;-73
2024/01/30 06:03:11;;;;;;;11.10;4.40;;;;;;;0.88;71.24;100989.22;106044;1251;107792;-71
2024/01/30 06:05:39;;;;;;;6.70;3.60;;;;;;;0.89;71.30;100995.67;106079;1254;96574;-74
2024/01/30 06:08:09;;;;;;;5.70;3.70;;;;;;;0.93;71.43;100990.25;106543;1254;96670;-81
2024/01/30 06:10:37;;;;;;;7.00;3.90;;;;;;;0.97;71.19;100986.24;105550;1251;111612;-82
2024/01/30 06:13:06;;;;;;;6.70;3.40;;;;;;;0.97;70.94;100989.38;105601;1256;96569;-77
2024/01/30 06:15:39;;;;;;;5.90;3.60;;;;;;;0.99;71.33;100983.26;105678;1251;107689;-78
2024/01/30 06:18:08;;;;;;;6.80;4.10;;;;;;;1.01;71.12;100981.15;105526;1255;96670;-77
2024/01/30 06:20:38;;;;;;;8.50;4.00;;;;;;;1.04;71.20;100988.48;106735;1251;96484;-78
2024/01/30 06:23:08;;;;;;;5.60;3.50;;;;;;;1.04;71.14;100986.03;106733;1253;110479;-75
2024/01/30 06:25:36;;;;;;;8.20;4.40;;;;;;;1.04;71.31;100989.70;107785;1254;96609;-74
2024/01/30 06:28:04;;;;;;;6.90;3.40;;;;;;;1.04;70.96;100988.30;105337;1253;107601;-75
2024/01/30 06:30:32;;;;;;;8.40;4.60;;;;;;;1.05;71.03;100985.86;106438;1253;96530;-74
2024/01/30 06:32:59;;;;;;;8.40;3.80;;;;;;;1.05;71.11;100983.94;105786;1255;96581;-75
2024/01/30 06:35:28;;;;;;;9.30;4.70;;;;;;;1.07;71.05;100983.77;105895;1254;110169;-73
2024/01/30 06:37:56;;;;;;;7.50;3.70;;;;;;;1.08;71.02;100979.90;108566;1251;95966;-73
2024/01/30 06:40:24;;;;;;;6.50;3.50;;;;;;;1.09;70.92;100983.92;105941;1254;107596;-73
2024/01/30 06:42:52;;;;;;;6.50;4.10;;;;;;;1.11;70.91;100978.85;106399;1253;97513;-73
2024/01/30 06:45:20;;;;;;;6.70;3.60;;;;;;;1.10;70.78;100973.63;108420;1250;94465;-74
2024/01/30 06:47:48;;;;;;;6.30;3.50;;;;;;;1.11;70.87;100970.46;106086;1254;110440;-75
2024/01/30 06:50:16;;;;;;;7.30;3.60;;;;;;;1.14;70.88;100966.80;108030;1255;96509;-74
2024/01/30 06:52:44;;;;;;;6.00;3.70;;;;;;;1.16;70.67;100967.30;105610;1265;107738;-74
2024/01/30 06:55:12;;;;;;;7.60;4.10;;;;;;;1.17;70.66;100969.59;105667;1254;96579;-76
2024/01/30 06:57:40;;;;;;;4.60;3.10;;;;;;;1.19;70.54;100971.49;105695;1252;96591;-75
2024/01/30 07:00:08;;;;;;;5.90;3.30;;;;;;;1.21;70.62;100971.66;105719;1256;108424;-74
2024/01/30 07:02:36;;;;;;;6.30;4.10;;;;;;;1.22;70.34;100970.96;105950;1254;97532;-74
2024/01/30 07:05:04;;;;;;;8.30;3.80;;;;;;;1.25;70.52;100971.98;105948;1256;107320;-74
2024/01/30 07:07:32;;;;;;;7.70;3.90;;;;;;;1.27;70.57;100972.86;108507;1251;96578;-75
2024/01/30 07:10:01;;;;;;;7.40;4.00;;;;;;;1.29;70.41;100974.77;105413;1256;97283;-73
2024/01/30 07:12:31;;;;;;;8.30;3.70;;;;;;;1.32;70.60;100973.19;106904;1254;109988;-73
2024/01/30 07:14:59;;;;;;;6.80;3.90;;;;;;;1.34;70.42;100973.54;105670;1256;97212;-73
2024/01/30 07:17:27;;;;;;;8.90;4.20;;;;;;;1.38;70.34;100970.19;107486;1255;107639;-76
2024/01/30 07:19:55;;;;;;;6.10;3.00;;;;;;;1.42;70.12;100972.11;106420;1256;96609;-74
2024/01/30 07:22:23;;;;;;;8.60;4.30;;;;;;;1.45;70.12;100972.79;105744;1251;97167;-77
2024/01/30 07:24:51;;;;;;;7.00;3.70;;;;;;;1.48;70.28;100968.92;108716;1250;108554;-76
2024/01/30 07:27:21;;;;;;;9.00;4.10;;;;;;;1.51;70.08;100969.79;105613;1256;96639;-74
2024/01/30 07:29:49;;;;;;;7.80;4.10;;;;;;;1.54;70.04;100971.52;107740;1252;107924;-75
2024/01/30 07:32:18;;;;;;;6.40;3.60;;;;;;;1.58;70.08;100973.79;105629;1254;97081;-75
2024/01/30 07:34:46;;;;;;;7.10;4.00;;;;;;;1.62;69.99;100976.38;106296;1254;96532;-74
2024/01/30 07:37:33;;;;;;;8.00;4.00;;;;;;;1.67;69.78;100974.77;105597;1257;109850;-75
2024/01/30 07:40:02;;;;;;;8.40;3.40;;;;;;;1.70;70.02;100970.73;106135;1254;97551;-73
2024/01/30 07:42:30;;;;;;;8.30;4.00;;;;;;;1.72;69.71;100972.83;105641;1259;107116;-76
2024/01/30 07:45:00;;;;;;;8.50;4.80;;;;;;;1.77;69.85;100975.42;105599;1253;96600;-75
2024/01/30 07:47:28;;;;;;;7.40;3.90;;;;;;;1.81;69.69;100980.84;106013;1255;96569;-74
2024/01/30 07:49:56;;;;;;;7.70;4.00;;;;;;;1.83;69.62;100979.77;105975;1253;109935;-73
2024/01/30 07:52:24;;;;;;;6.60;3.80;;;;;;;1.86;69.55;100977.11;106000;1253;97835;-74
2024/01/30 07:54:52;;;;;;;6.70;3.90;;;;;;;1.91;69.68;100972.37;105865;1254;107692;-73
2024/01/30 07:57:20;;;;;;;6.60;3.50;;;;;;;1.95;69.71;100971.64;106310;1252;96604;-76
2024/01/30 07:59:48;;;;;;;6.60;3.80;;;;;;;1.98;69.32;100974.77;106377;1253;96556;-74
2024/01/30 08:02:15;;;;;;;7.20;3.30;;;;;;;2.00;69.31;100971.09;105711;1255;109879;-74
2024/01/30 08:04:43;;;;;;;8.00;3.80;;;;;;;2.03;69.59;100974.21;105706;1253;97838;-74
2024/01/30 08:07:11;;;;;;;7.40;4.20;;;;;;;2.07;69.41;100975.40;105432;1256;105637;-73
2024/01/30 08:09:39;;;;;;;6.80;3.60;;;;;;;2.10;69.26;100975.91;105319;1265;96597;-77
2024/01/30 08:12:07;;;;;;;6.10;3.40;;;;;;;2.13;69.25;100974.66;105963;1250;96583;-74
2024/01/30 08:14:35;;;;;;;7.60;3.90;;;;;;;2.16;69.43;100974.83;105367;1256;109964;-73
2024/01/30 08:17:03;;;;;;;8.80;4.20;;;;;;;2.17;69.08;100972.89;105299;1257;97918;-73
2024/01/30 08:19:31;;;;;;;6.10;3.40;;;;;;;2.23;68.82;100977.91;106263;1255;107565;-73
2024/01/30 08:21:59;;;;;;;6.60;3.90;;;;;;;2.27;69.26;100979.48;108454;1251;94524;-74
2024/01/30 08:24:27;;;;;;;6.90;4.00;;;;;;;2.31;69.09;100983.64;105905;1253;96578;-74
2024/01/30 08:26:55;;;;;;;7.90;3.70;;;;;;;2.35;69.11;100983.45;106183;1254;109953;-72
2024/01/30 08:29:22;;;;;;;6.30;3.40;;;;;;;2.36;68.97;100982.55;106186;1253;96612;-73
2024/01/30 08:31:50;;;;;;;7.80;4.40;;;;;;;2.40;68.75;100982.00;105492;1253;107070;-73
2024/01/30 08:34:18;;;;;;;7.90;3.60;;;;;;;2.45;68.98;100980.19;107103;1254;96576;-74
2024/01/30 08:36:46;;;;;;;8.10;4.10;;;;;;;2.50;68.80;100980.86;105721;1255;97915;-73
2024/01/30 08:39:14;;;;;;;6.40;4.10;;;;;;;2.55;68.83;100982.56;106063;1255;109625;-73
2024/01/30 08:41:42;;;;;;;14.00;5.60;;;;;;;2.59;68.69;100979.90;106043;1255;96575;-76
2024/01/30 08:44:11;;;;;;;12.30;4.80;;;;;;;2.63;68.73;100981.09;107512;1254;107608;-73
2024/01/30 08:46:39;;;;;;;9.20;4.90;;;;;;;2.65;68.43;100975.98;106727;1254;96575;-75
2024/01/30 08:49:07;;;;;;;9.00;4.30;;;;;;;2.67;68.39;100974.05;106458;1253;96702;-74
2024/01/30 08:51:36;;;;;;;9.70;4.00;;;;;;;2.73;68.41;100974.52;105610;1266;109959;-74
2024/01/30 08:54:03;;;;;;;6.90;4.10;;;;;;;2.78;68.50;100975.53;105288;1256;97521;-75
2024/01/30 08:56:31;;;;;;;7.20;4.10;;;;;;;2.80;68.43;100970.60;105684;1254;107678;-74
2024/01/30 08:58:59;;;;;;;8.60;4.30;;;;;;;2.83;68.57;100976.88;105602;1251;96627;-74
2024/01/30 09:01:27;;;;;;;6.70;3.60;;;;;;;2.87;68.38;100981.21;106516;1253;96658;-74
2024/01/30 09:03:55;;;;;;;9.60;3.80;;;;;;;2.92;68.37;100978.54;106460;1250;110704;-73
2024/01/30 09:06:26;;;;;;;8.20;4.10;;;;;;;2.96;68.30;100980.42;104871;1255;97909;-73
2024/01/30 09:08:54;;;;;;;7.60;4.10;;;;;;;3.02;68.23;100978.27;105735;1264;107640;-73
2024/01/30 09:11:22;;;;;;;6.20;3.40;;;;;;;3.05;68.41;100977.54;105681;1256;96610;-73
2024/01/30 09:13:50;;;;;;;8.80;4.30;;;;;;;3.07;68.25;100972.58;108515;1253;94498;-74
2024/01/30 09:16:17;;;;;;;7.70;4.60;;;;;;;3.09;68.16;100968.71;105707;1256;110999;-74
2024/01/30 09:18:45;;;;;;;8.60;4.40;;;;;;;3.10;68.12;100970.45;105983;1254;97921;-75
2024/01/30 09:21:14;;;;;;;7.80;3.90;;;;;;;3.12;68.22;100967.80;105848;1256;107574;-73
2024/01/30 09:23:41;;;;;;;9.30;4.50;;;;;;;3.15;68.08;100972.51;106253;1254;97860;-74
2024/01/30 09:26:09;;;;;;;7.90;3.70;;;;;;;3.20;68.07;100969.46;107004;1255;96599;-74
2024/01/30 09:28:38;;;;;;;10.10;4.70;;;;;;;3.23;67.94;100969.27;108294;1253;109141;-73
2024/01/30 09:31:10;;;;;;;8.00;4.50;;;;;;;3.24;67.84;100969.95;105743;1253;97846;-74
2024/01/30 09:33:38;;;;;;;8.70;4.80;;;;;;;3.26;67.94;100976.05;106110;1254;108318;-75
2024/01/30 09:36:07;;;;;;;8.20;4.50;;;;;;;3.30;67.68;100976.19;105756;1255;97908;-74
2024/01/30 09:38:35;;;;;;;8.80;4.20;;;;;;;3.36;67.94;100973.14;105905;1254;96598;-74
2024/01/30 09:41:08;;;;;;;10.00;5.30;;;;;;;3.40;67.88;100970.10;105544;1250;110819;-73
2024/01/30 09:43:38;;;;;;;9.30;4.90;;;;;;;3.46;67.55;100972.65;106023;1253;96527;-73
2024/01/30 09:46:12;;;;;;;10.60;5.10;;;;;;;3.49;67.58;100969.46;106097;1254;106459;-73
2024/01/30 09:48:46;;;;;;;9.30;4.70;;;;;;;3.49;67.72;100973.14;108286;1254;96580;-73
2024/01/30 09:51:16;;;;;;;11.90;4.70;;;;;;;3.51;67.75;100971.72;106979;1254;96487;-75
2024/01/30 09:53:44;;;;;;;7.70;4.00;;;;;;;3.52;67.35;100974.34;106216;1257;109327;-74
2024/01/30 09:56:14;;;;;;;7.00;3.80;;;;;;;3.55;67.51;100973.42;106225;1256;96504;-73
2024/01/30 09:58:41;;;;;;;8.80;3.40;;;;;;;3.58;67.45;100970.75;105413;1257;106656;-74
2024/01/30 10:01:10;;;;;;;7.40;4.70;;;;;;;3.63;67.86;100967.71;105714;1256;97449;-72
2024/01/30 10:03:38;;;;;;;8.30;4.10;;;;;;;3.69;67.53;100956.55;108539;1253;94567;-73
2024/01/30 10:06:08;;;;;;;17.30;4.70;;;;;;;3.74;67.45;100957.04;108586;1251;109833;-73
2024/01/30 10:08:35;;;;;;;10.50;4.90;;;;;;;3.75;67.32;100954.91;108032;1253;96537;-73
2024/01/30 10:11:04;;;;;;;10.90;5.00;;;;;;;3.78;67.48;100952.40;105914;1256;107109;-73
2024/01/30 10:13:31;;;;;;;9.80;5.30;;;;;;;3.84;67.48;100952.33;108422;1251;96521;-75
2024/01/30 10:16:02;;;;;;;11.60;5.40;;;;;;;3.89;67.30;100949.44;106520;1255;97200;-75
2024/01/30 10:18:29;;;;;;;10.50;4.10;;;;;;;3.93;67.42;100949.73;107806;1251;109948;-75
2024/01/30 10:20:58;;;;;;;8.40;4.50;;;;;;;3.97;67.34;100947.20;107057;1255;96575;-73
2024/01/30 10:23:26;;;;;;;6.30;3.90;;;;;;;4.00;67.10;100945.41;105513;1253;107078;-78
2024/01/30 10:26:03;;;;;;;8.80;4.70;;;;;;;4.05;67.33;100944.65;105969;1254;96657;-74
2024/01/30 10:28:31;;;;;;;7.50;4.50;;;;;;;4.10;67.24;100947.54;105432;1254;96564;-73
2024/01/30 10:31:00;;;;;;;9.30;4.00;;;;;;;4.13;67.14;100944.68;108498;1251;109520;-72
2024/01/30 10:33:33;;;;;;;7.20;4.40;;;;;;;4.14;67.35;100943.61;106472;1252;96605;-73
2024/01/30 10:36:06;;;;;;;7.70;4.50;;;;;;;4.16;67.31;100939.02;106290;1252;107574;-73
2024/01/30 10:38:34;;;;;;;7.90;4.00;;;;;;;4.16;67.05;100932.34;105918;1255;96772;-73
2024/01/30 10:41:02;;;;;;;11.70;5.80;;;;;;;4.17;67.19;100930.39;105909;1256;97320;-72
2024/01/30 10:43:35;;;;;;;16.30;6.20;;;;;;;4.21;66.96;100928.41;105988;1266;108437;-73
2024/01/30 10:46:12;;;;;;;14.50;5.90;;;;;;;4.26;67.08;100926.23;108584;1251;94457;-73
2024/01/30 10:48:48;;;;;;;12.90;5.30;;;;;;;4.30;67.21;100920.35;106246;1254;107255;-78
2024/01/30 10:51:19;;;;;;;8.60;4.60;;;;;;;4.34;67.09;100918.17;105694;1256;97829;-73
2024/01/30 10:53:49;;;;;;;8.50;4.30;;;;;;;4.35;66.98;100913.77;106217;1255;96605;-73
2024/01/30 10:56:20;;;;;;;8.40;5.00;;;;;;;4.35;66.87;100910.59;108566;1251;108915;-74
2024/01/30 10:58:52;;;;;;;8.30;4.60;;;;;;;4.36;66.94;100909.88;106396;1256;97927;-74
2024/01/30 11:03:36;;;;;;;;;;;;;;;4.50;67.02;100902.95;102296;1292;635606;-74
2024/01/30 11:06:04;;;;;;;8.40;4.40;;;;;;;4.52;66.95;100901.35;104993;1269;94568;-77
2024/01/30 11:08:32;;;;;;;8.30;4.20;;;;;;;4.54;66.85;100902.19;105643;1267;94341;-74
2024/01/30 11:11:00;;;;;;;9.00;4.30;;;;;;;4.57;66.76;100893.36;107589;1267;107106;-74
2024/01/30 11:13:31;;;;;;;9.00;5.20;;;;;;;4.56;66.71;100893.89;108254;1256;95731;-74
2024/01/30 11:16:04;;;;;;;8.20;5.40;;;;;;;4.56;66.67;100892.67;106738;1256;108163;-73
2024/01/30 11:18:33;;;;;;;;;;;;;;;4.57;66.51;100894.23;105694;1255;94289;-74
2024/01/30 11:21:01;;;;;;;8.30;4.70;;;;;;;4.59;66.58;100890.33;105665;1256;94285;-72
2024/01/30 11:23:33;;;;;;;7.80;4.40;;;;;;;4.58;66.43;100882.79;107442;1255;107246;-74
2024/01/30 11:26:01;;;;;;;9.80;4.70;;;;;;;4.62;66.34;100882.89;105412;1257;95330;-73
2024/01/30 11:28:34;;;;;;;10.50;4.90;;;;;;;4.62;66.18;100874.11;105656;1256;107401;-76
2024/01/30 11:31:04;;;;;;;10.00;4.90;;;;;;;4.58;66.20;100872.42;105952;1254;95605;-73